sensor_id;sensor_type;location;lat;lon;timestamp;temperature;humidity
27795;DHT22;15176;50.844;4.412;2023-06-26T00:00:44;24.20;99.90
27795;DHT22;15176;50.844;4.412;2023-06-26T00:03:10;24.00;99.90
27795;DHT22;15176;50.844;4.412;2023-06-26T00:05:39;24.00;99.90
27795;DHT22;15176;50.844;4.412;2023-06-26T00:08:05;24.10;99.90
27795;DHT22;15176;50.844;4.412;2023-06-26T00:10:31;23.90;99.90
27795;DHT22;15176;50.844;4.412;2023-06-26T00:12:56;23.90;99.90
27795;DHT22;15176;50.844;4.412;2023-06-26T00:15:22;23.80;99.90
27795;DHT22;15176;50.844;4.412;2023-06-26T00:17:49;23.70;99.90
27795;DHT22;15176;50.844;4.412;2023-06-26T00:20:19;23.80;99.90
27795;DHT22;15176;50.844;4.412;2023-06-26T00:22:44;23.80;99.90
27795;DHT22;15176;50.844;4.412;2023-06-26T00:25:11;23.70;99.90
27795;DHT22;15176;50.844;4.412;2023-06-26T00:27:37;23.60;99.90
27795;DHT22;15176;50.844;4.412;2023-06-26T00:30:03;23.60;99.90
27795;DHT22;15176;50.844;4.412;2023-06-26T00:32:28;23.80;99.90
27795;DHT22;15176;50.844;4.412;2023-06-26T00:34:54;23.40;99.90
27795;DHT22;15176;50.844;4.412;2023-06-26T00:37:20;23.40;99.90
27795;DHT22;15176;50.844;4.412;2023-06-26T00:39:47;23.30;99.90
27795;DHT22;15176;50.844;4.412;2023-06-26T00:42:12;23.20;99.90
27795;DHT22;15176;50.844;4.412;2023-06-26T00:44:38;23.00;99.90
27795;DHT22;15176;50.844;4.412;2023-06-26T00:47:04;23.00;99.90
27795;DHT22;15176;50.844;4.412;2023-06-26T00:49:30;22.80;99.90
27795;DHT22;15176;50.844;4.412;2023-06-26T00:51:56;22.60;99.90
27795;DHT22;15176;50.844;4.412;2023-06-26T00:54:22;22.80;99.90
27795;DHT22;15176;50.844;4.412;2023-06-26T00:56:48;22.80;99.90
27795;DHT22;15176;50.844;4.412;2023-06-26T00:59:14;22.70;99.90
27795;DHT22;15176;50.844;4.412;2023-06-26T01:01:40;22.60;99.90
27795;DHT22;15176;50.844;4.412;2023-06-26T01:04:05;22.50;99.90
27795;DHT22;15176;50.844;4.412;2023-06-26T01:06:32;22.50;99.90
27795;DHT22;15176;50.844;4.412;2023-06-26T01:09:01;22.30;99.90
27795;DHT22;15176;50.844;4.412;2023-06-26T01:11:27;22.40;99.90
27795;DHT22;15176;50.844;4.412;2023-06-26T01:13:53;22.40;99.90
27795;DHT22;15176;50.844;4.412;2023-06-26T01:16:21;22.30;99.90
27795;DHT22;15176;50.844;4.412;2023-06-26T01:18:49;22.20;99.90
27795;DHT22;15176;50.844;4.412;2023-06-26T01:21:16;22.20;99.90
27795;DHT22;15176;50.844;4.412;2023-06-26T01:24:02;22.30;99.90
27795;DHT22;15176;50.844;4.412;2023-06-26T01:26:32;22.20;99.90
27795;DHT22;15176;50.844;4.412;2023-06-26T01:29:01;22.10;99.90
27795;DHT22;15176;50.844;4.412;2023-06-26T01:31:29;21.90;99.90
27795;DHT22;15176;50.844;4.412;2023-06-26T01:33:59;22.10;99.90
27795;DHT22;15176;50.844;4.412;2023-06-26T01:36:26;22.00;99.90
27795;DHT22;15176;50.844;4.412;2023-06-26T01:38:52;22.00;99.90
27795;DHT22;15176;50.844;4.412;2023-06-26T01:41:19;22.00;99.90
27795;DHT22;15176;50.844;4.412;2023-06-26T01:46:59;22.00;99.90
27795;DHT22;15176;50.844;4.412;2023-06-26T01:52:40;22.00;99.90
27795;DHT22;15176;50.844;4.412;2023-06-26T01:55:17;21.70;99.90
27795;DHT22;15176;50.844;4.412;2023-06-26T01:57:46;21.70;99.90
27795;DHT22;15176;50.844;4.412;2023-06-26T02:00:16;21.60;99.90
27795;DHT22;15176;50.844;4.412;2023-06-26T02:02:45;21.70;99.90
27795;DHT22;15176;50.844;4.412;2023-06-26T02:05:12;21.50;99.90
27795;DHT22;15176;50.844;4.412;2023-06-26T02:07:38;21.40;99.90
27795;DHT22;15176;50.844;4.412;2023-06-26T02:10:04;21.50;99.90
27795;DHT22;15176;50.844;4.412;2023-06-26T02:12:30;21.50;99.90
27795;DHT22;15176;50.844;4.412;2023-06-26T02:14:55;21.60;99.90
27795;DHT22;15176;50.844;4.412;2023-06-26T02:17:21;21.60;99.90
27795;DHT22;15176;50.844;4.412;2023-06-26T02:19:47;21.60;99.90
27795;DHT22;15176;50.844;4.412;2023-06-26T02:22:16;21.40;99.90
27795;DHT22;15176;50.844;4.412;2023-06-26T02:24:42;21.20;99.90
27795;DHT22;15176;50.844;4.412;2023-06-26T02:27:08;21.30;99.90
27795;DHT22;15176;50.844;4.412;2023-06-26T02:29:34;21.30;99.90
27795;DHT22;15176;50.844;4.412;2023-06-26T02:32:00;21.20;99.90
27795;DHT22;15176;50.844;4.412;2023-06-26T02:34:26;21.00;99.90
27795;DHT22;15176;50.844;4.412;2023-06-26T02:36:51;21.00;99.90
27795;DHT22;15176;50.844;4.412;2023-06-26T02:39:21;20.90;99.90
27795;DHT22;15176;50.844;4.412;2023-06-26T02:41:47;20.90;99.90
27795;DHT22;15176;50.844;4.412;2023-06-26T02:44:13;20.70;99.90
27795;DHT22;15176;50.844;4.412;2023-06-26T02:46:40;20.70;99.90
27795;DHT22;15176;50.844;4.412;2023-06-26T02:49:06;20.90;99.90
27795;DHT22;15176;50.844;4.412;2023-06-26T02:51:32;20.90;99.90
27795;DHT22;15176;50.844;4.412;2023-06-26T02:53:58;20.90;99.90
27795;DHT22;15176;50.844;4.412;2023-06-26T02:56:24;20.80;99.90
27795;DHT22;15176;50.844;4.412;2023-06-26T02:58:54;21.00;99.90
27795;DHT22;15176;50.844;4.412;2023-06-26T03:01:20;20.90;99.90
27795;DHT22;15176;50.844;4.412;2023-06-26T03:03:46;20.90;99.90
27795;DHT22;15176;50.844;4.412;2023-06-26T03:06:13;20.90;99.90
27795;DHT22;15176;50.844;4.412;2023-06-26T03:08:39;20.90;99.90
27795;DHT22;15176;50.844;4.412;2023-06-26T03:11:06;20.60;99.90
27795;DHT22;15176;50.844;4.412;2023-06-26T03:13:33;20.80;99.90
27795;DHT22;15176;50.844;4.412;2023-06-26T03:16:00;20.70;99.90
27795;DHT22;15176;50.844;4.412;2023-06-26T03:18:27;20.60;99.90
27795;DHT22;15176;50.844;4.412;2023-06-26T03:20:53;20.40;99.90
27795;DHT22;15176;50.844;4.412;2023-06-26T03:23:21;20.40;99.90
27795;DHT22;15176;50.844;4.412;2023-06-26T03:25:48;20.50;99.90
27795;DHT22;15176;50.844;4.412;2023-06-26T03:28:14;20.40;99.90
27795;DHT22;15176;50.844;4.412;2023-06-26T03:30:39;20.50;99.90
27795;DHT22;15176;50.844;4.412;2023-06-26T03:33:05;20.30;99.90
27795;DHT22;15176;50.844;4.412;2023-06-26T03:35:31;20.30;99.90
27795;DHT22;15176;50.844;4.412;2023-06-26T03:37:57;20.10;99.90
27795;DHT22;15176;50.844;4.412;2023-06-26T03:40:23;20.10;99.90
27795;DHT22;15176;50.844;4.412;2023-06-26T03:42:48;20.00;99.90
27795;DHT22;15176;50.844;4.412;2023-06-26T03:45:14;20.20;99.90
27795;DHT22;15176;50.844;4.412;2023-06-26T03:47:40;20.20;99.90
27795;DHT22;15176;50.844;4.412;2023-06-26T03:50:06;20.30;99.90
27795;DHT22;15176;50.844;4.412;2023-06-26T03:52:32;20.30;99.90
27795;DHT22;15176;50.844;4.412;2023-06-26T03:54:58;20.30;99.90
27795;DHT22;15176;50.844;4.412;2023-06-26T03:57:23;20.30;99.90
27795;DHT22;15176;50.844;4.412;2023-06-26T03:59:50;20.20;99.90
27795;DHT22;15176;50.844;4.412;2023-06-26T04:02:16;20.20;99.90
27795;DHT22;15176;50.844;4.412;2023-06-26T04:04:41;20.00;99.90
27795;DHT22;15176;50.844;4.412;2023-06-26T04:07:07;19.90;99.90
27795;DHT22;15176;50.844;4.412;2023-06-26T04:09:33;19.70;99.90
27795;DHT22;15176;50.844;4.412;2023-06-26T04:11:59;19.50;99.90
27795;DHT22;15176;50.844;4.412;2023-06-26T04:14:25;19.60;99.90
27795;DHT22;15176;50.844;4.412;2023-06-26T04:16:50;19.70;99.90
27795;DHT22;15176;50.844;4.412;2023-06-26T04:19:16;19.60;99.90
27795;DHT22;15176;50.844;4.412;2023-06-26T04:21:42;19.70;99.90
27795;DHT22;15176;50.844;4.412;2023-06-26T04:24:08;19.90;99.90
27795;DHT22;15176;50.844;4.412;2023-06-26T04:26:34;19.90;99.90
27795;DHT22;15176;50.844;4.412;2023-06-26T04:29:00;20.00;99.90
27795;DHT22;15176;50.844;4.412;2023-06-26T04:31:25;19.90;99.90
27795;DHT22;15176;50.844;4.412;2023-06-26T04:33:51;20.20;99.90
27795;DHT22;15176;50.844;4.412;2023-06-26T04:36:21;20.20;99.90
27795;DHT22;15176;50.844;4.412;2023-06-26T04:38:47;20.40;99.90
27795;DHT22;15176;50.844;4.412;2023-06-26T04:41:15;20.60;99.90
27795;DHT22;15176;50.844;4.412;2023-06-26T04:43:41;20.50;99.90
27795;DHT22;15176;50.844;4.412;2023-06-26T04:46:06;20.20;99.90
27795;DHT22;15176;50.844;4.412;2023-06-26T04:48:32;20.30;99.90
27795;DHT22;15176;50.844;4.412;2023-06-26T04:50:58;20.30;99.90
27795;DHT22;15176;50.844;4.412;2023-06-26T04:53:25;20.20;99.90
27795;DHT22;15176;50.844;4.412;2023-06-26T04:55:53;20.30;99.90
27795;DHT22;15176;50.844;4.412;2023-06-26T04:58:20;20.30;99.90
27795;DHT22;15176;50.844;4.412;2023-06-26T05:00:46;20.10;99.90
27795;DHT22;15176;50.844;4.412;2023-06-26T05:03:12;20.00;99.90
27795;DHT22;15176;50.844;4.412;2023-06-26T05:05:38;20.10;99.90
27795;DHT22;15176;50.844;4.412;2023-06-26T05:08:20;20.20;99.90
27795;DHT22;15176;50.844;4.412;2023-06-26T05:10:46;19.90;99.90
27795;DHT22;15176;50.844;4.412;2023-06-26T05:13:12;19.90;99.90
27795;DHT22;15176;50.844;4.412;2023-06-26T05:15:41;19.80;99.90
27795;DHT22;15176;50.844;4.412;2023-06-26T05:18:07;20.10;99.90
27795;DHT22;15176;50.844;4.412;2023-06-26T05:20:34;20.20;99.90
27795;DHT22;15176;50.844;4.412;2023-06-26T05:23:01;20.50;99.90
27795;DHT22;15176;50.844;4.412;2023-06-26T05:25:31;20.60;99.90
27795;DHT22;15176;50.844;4.412;2023-06-26T05:27:58;20.60;99.90
27795;DHT22;15176;50.844;4.412;2023-06-26T05:30:27;20.40;99.90
27795;DHT22;15176;50.844;4.412;2023-06-26T05:32:53;20.30;99.90
27795;DHT22;15176;50.844;4.412;2023-06-26T05:35:23;20.10;99.90
27795;DHT22;15176;50.844;4.412;2023-06-26T05:37:49;20.10;99.90
27795;DHT22;15176;50.844;4.412;2023-06-26T05:40:17;20.30;99.90
27795;DHT22;15176;50.844;4.412;2023-06-26T05:42:43;20.50;99.90
27795;DHT22;15176;50.844;4.412;2023-06-26T05:45:10;20.70;99.90
27795;DHT22;15176;50.844;4.412;2023-06-26T05:47:36;20.80;99.90
27795;DHT22;15176;50.844;4.412;2023-06-26T05:50:02;20.70;99.90
27795;DHT22;15176;50.844;4.412;2023-06-26T05:52:28;20.60;99.90
27795;DHT22;15176;50.844;4.412;2023-06-26T05:54:55;20.60;99.90
27795;DHT22;15176;50.844;4.412;2023-06-26T05:57:25;20.50;99.90
27795;DHT22;15176;50.844;4.412;2023-06-26T05:59:53;20.40;99.90
27795;DHT22;15176;50.844;4.412;2023-06-26T06:02:18;20.40;99.90
27795;DHT22;15176;50.844;4.412;2023-06-26T06:04:44;20.50;99.90
27795;DHT22;15176;50.844;4.412;2023-06-26T06:07:10;20.30;99.90
27795;DHT22;15176;50.844;4.412;2023-06-26T06:09:36;20.30;99.90
27795;DHT22;15176;50.844;4.412;2023-06-26T06:12:04;20.50;99.90
27795;DHT22;15176;50.844;4.412;2023-06-26T06:14:30;20.50;99.90
27795;DHT22;15176;50.844;4.412;2023-06-26T06:16:55;20.70;99.90
27795;DHT22;15176;50.844;4.412;2023-06-26T06:19:24;20.80;99.90
27795;DHT22;15176;50.844;4.412;2023-06-26T06:21:49;20.80;99.90
27795;DHT22;15176;50.844;4.412;2023-06-26T06:24:15;20.50;99.90
27795;DHT22;15176;50.844;4.412;2023-06-26T06:26:41;20.60;99.90
27795;DHT22;15176;50.844;4.412;2023-06-26T06:29:06;20.80;99.90
27795;DHT22;15176;50.844;4.412;2023-06-26T06:31:32;21.00;99.90
27795;DHT22;15176;50.844;4.412;2023-06-26T06:33:58;21.10;99.90
27795;DHT22;15176;50.844;4.412;2023-06-26T06:36:23;21.10;99.90
27795;DHT22;15176;50.844;4.412;2023-06-26T06:38:49;21.20;99.90
27795;DHT22;15176;50.844;4.412;2023-06-26T06:41:15;21.50;99.90
27795;DHT22;15176;50.844;4.412;2023-06-26T06:43:42;21.90;99.90
27795;DHT22;15176;50.844;4.412;2023-06-26T06:46:08;21.70;99.90
27795;DHT22;15176;50.844;4.412;2023-06-26T06:48:37;21.70;99.90
27795;DHT22;15176;50.844;4.412;2023-06-26T06:51:02;21.70;99.90
27795;DHT22;15176;50.844;4.412;2023-06-26T06:53:31;21.70;99.90
27795;DHT22;15176;50.844;4.412;2023-06-26T06:55:57;21.90;99.90
27795;DHT22;15176;50.844;4.412;2023-06-26T06:58:22;21.90;99.90
27795;DHT22;15176;50.844;4.412;2023-06-26T07:00:48;21.80;99.90
27795;DHT22;15176;50.844;4.412;2023-06-26T07:03:14;22.00;99.90
27795;DHT22;15176;50.844;4.412;2023-06-26T07:05:41;22.10;99.90
27795;DHT22;15176;50.844;4.412;2023-06-26T07:08:07;21.90;99.90
27795;DHT22;15176;50.844;4.412;2023-06-26T07:10:34;21.80;99.90
27795;DHT22;15176;50.844;4.412;2023-06-26T07:13:01;22.00;99.90
27795;DHT22;15176;50.844;4.412;2023-06-26T07:15:27;22.30;99.90
27795;DHT22;15176;50.844;4.412;2023-06-26T07:17:53;22.30;99.90
27795;DHT22;15176;50.844;4.412;2023-06-26T07:20:18;22.40;99.90
27795;DHT22;15176;50.844;4.412;2023-06-26T07:22:45;22.80;99.90
27795;DHT22;15176;50.844;4.412;2023-06-26T07:25:13;23.10;99.90
27795;DHT22;15176;50.844;4.412;2023-06-26T07:27:40;23.30;99.90
27795;DHT22;15176;50.844;4.412;2023-06-26T07:30:06;23.20;99.90
27795;DHT22;15176;50.844;4.412;2023-06-26T07:32:34;23.30;99.90
27795;DHT22;15176;50.844;4.412;2023-06-26T07:35:00;23.30;99.90
27795;DHT22;15176;50.844;4.412;2023-06-26T07:37:26;23.50;99.90
27795;DHT22;15176;50.844;4.412;2023-06-26T07:39:52;23.70;99.90
27795;DHT22;15176;50.844;4.412;2023-06-26T07:42:18;23.90;99.90
27795;DHT22;15176;50.844;4.412;2023-06-26T07:44:46;24.00;99.90
27795;DHT22;15176;50.844;4.412;2023-06-26T07:47:12;24.20;99.90
27795;DHT22;15176;50.844;4.412;2023-06-26T07:49:39;24.30;99.90
27795;DHT22;15176;50.844;4.412;2023-06-26T07:52:06;24.10;99.90
27795;DHT22;15176;50.844;4.412;2023-06-26T07:54:31;23.80;99.90
27795;DHT22;15176;50.844;4.412;2023-06-26T07:57:02;24.30;99.90
27795;DHT22;15176;50.844;4.412;2023-06-26T07:59:29;24.70;99.40
27795;DHT22;15176;50.844;4.412;2023-06-26T08:01:56;24.70;98.40
27795;DHT22;15176;50.844;4.412;2023-06-26T08:04:24;24.70;99.10
27795;DHT22;15176;50.844;4.412;2023-06-26T08:06:53;24.90;98.80
27795;DHT22;15176;50.844;4.412;2023-06-26T08:09:23;24.90;97.10
27795;DHT22;15176;50.844;4.412;2023-06-26T08:11:51;24.60;97.60
27795;DHT22;15176;50.844;4.412;2023-06-26T08:14:18;24.70;97.60
27795;DHT22;15176;50.844;4.412;2023-06-26T08:16:44;24.90;97.30
27795;DHT22;15176;50.844;4.412;2023-06-26T08:19:12;25.20;96.50
27795;DHT22;15176;50.844;4.412;2023-06-26T08:21:39;25.10;96.50
27795;DHT22;15176;50.844;4.412;2023-06-26T08:24:05;25.00;96.50
27795;DHT22;15176;50.844;4.412;2023-06-26T08:26:30;25.40;95.80
27795;DHT22;15176;50.844;4.412;2023-06-26T08:28:56;25.20;95.80
27795;DHT22;15176;50.844;4.412;2023-06-26T08:31:22;25.10;95.00
27795;DHT22;15176;50.844;4.412;2023-06-26T08:33:47;25.10;95.20
27795;DHT22;15176;50.844;4.412;2023-06-26T08:36:13;25.30;94.30
27795;DHT22;15176;50.844;4.412;2023-06-26T08:38:39;25.40;93.80
27795;DHT22;15176;50.844;4.412;2023-06-26T08:41:08;25.70;93.50
27795;DHT22;15176;50.844;4.412;2023-06-26T08:43:34;25.80;92.60
27795;DHT22;15176;50.844;4.412;2023-06-26T08:46:01;25.70;92.70
27795;DHT22;15176;50.844;4.412;2023-06-26T08:48:30;25.60;93.80
27795;DHT22;15176;50.844;4.412;2023-06-26T08:51:00;25.80;92.90
27795;DHT22;15176;50.844;4.412;2023-06-26T08:53:37;26.20;93.30
27795;DHT22;15176;50.844;4.412;2023-06-26T08:56:07;25.80;92.30
27795;DHT22;15176;50.844;4.412;2023-06-26T08:58:34;25.70;91.20
27795;DHT22;15176;50.844;4.412;2023-06-26T09:01:02;25.60;91.10
27795;DHT22;15176;50.844;4.412;2023-06-26T09:03:28;25.80;90.90
27795;DHT22;15176;50.844;4.412;2023-06-26T09:05:54;25.90;89.80
27795;DHT22;15176;50.844;4.412;2023-06-26T09:08:19;25.30;90.40
27795;DHT22;15176;50.844;4.412;2023-06-26T09:10:45;25.70;90.70
27795;DHT22;15176;50.844;4.412;2023-06-26T09:13:11;26.00;87.70
27795;DHT22;15176;50.844;4.412;2023-06-26T09:15:38;26.20;87.50
27795;DHT22;15176;50.844;4.412;2023-06-26T09:18:07;26.50;86.90
27795;DHT22;15176;50.844;4.412;2023-06-26T09:20:33;26.90;84.10
27795;DHT22;15176;50.844;4.412;2023-06-26T09:23:00;26.80;84.50
27795;DHT22;15176;50.844;4.412;2023-06-26T09:25:26;26.40;84.70
27795;DHT22;15176;50.844;4.412;2023-06-26T09:27:52;26.50;84.20
27795;DHT22;15176;50.844;4.412;2023-06-26T09:30:19;26.30;84.90
27795;DHT22;15176;50.844;4.412;2023-06-26T09:32:46;26.50;82.60
27795;DHT22;15176;50.844;4.412;2023-06-26T09:35:12;26.40;82.70
27795;DHT22;15176;50.844;4.412;2023-06-26T09:37:38;26.20;83.10
27795;DHT22;15176;50.844;4.412;2023-06-26T09:40:08;26.20;83.50
27795;DHT22;15176;50.844;4.412;2023-06-26T09:42:37;26.00;79.70
27795;DHT22;15176;50.844;4.412;2023-06-26T09:45:03;25.60;83.40
27795;DHT22;15176;50.844;4.412;2023-06-26T09:47:34;25.80;80.20
27795;DHT22;15176;50.844;4.412;2023-06-26T09:50:02;25.90;80.10
27795;DHT22;15176;50.844;4.412;2023-06-26T09:52:31;26.10;78.40
27795;DHT22;15176;50.844;4.412;2023-06-26T09:55:08;26.10;77.20
27795;DHT22;15176;50.844;4.412;2023-06-26T09:57:35;26.10;75.70
27795;DHT22;15176;50.844;4.412;2023-06-26T10:00:02;26.30;76.00
27795;DHT22;15176;50.844;4.412;2023-06-26T10:02:29;26.60;75.20
27795;DHT22;15176;50.844;4.412;2023-06-26T10:04:55;26.60;77.00
27795;DHT22;15176;50.844;4.412;2023-06-26T10:07:21;26.80;75.70
27795;DHT22;15176;50.844;4.412;2023-06-26T10:09:48;27.20;76.20
27795;DHT22;15176;50.844;4.412;2023-06-26T10:12:33;27.40;75.90
27795;DHT22;15176;50.844;4.412;2023-06-26T10:15:02;27.70;70.20
27795;DHT22;15176;50.844;4.412;2023-06-26T10:17:32;27.10;70.90
27795;DHT22;15176;50.844;4.412;2023-06-26T10:20:02;27.10;72.50
27795;DHT22;15176;50.844;4.412;2023-06-26T10:22:31;27.50;69.90
27795;DHT22;15176;50.844;4.412;2023-06-26T10:24:59;27.60;68.40
27795;DHT22;15176;50.844;4.412;2023-06-26T10:27:28;27.30;67.40
27795;DHT22;15176;50.844;4.412;2023-06-26T10:29:58;27.40;68.40
27795;DHT22;15176;50.844;4.412;2023-06-26T10:32:26;27.10;65.10
27795;DHT22;15176;50.844;4.412;2023-06-26T10:34:53;27.10;66.30
27795;DHT22;15176;50.844;4.412;2023-06-26T10:37:49;26.80;66.70
27795;DHT22;15176;50.844;4.412;2023-06-26T10:40:25;26.80;66.60
27795;DHT22;15176;50.844;4.412;2023-06-26T10:42:55;26.90;67.20
27795;DHT22;15176;50.844;4.412;2023-06-26T10:45:30;26.90;64.60
27795;DHT22;15176;50.844;4.412;2023-06-26T10:47:58;27.20;67.60
27795;DHT22;15176;50.844;4.412;2023-06-26T10:50:42;27.30;64.60
27795;DHT22;15176;50.844;4.412;2023-06-26T10:56:01;27.20;66.80
27795;DHT22;15176;50.844;4.412;2023-06-26T11:01:14;27.40;64.80
27795;DHT22;15176;50.844;4.412;2023-06-26T11:04:09;27.30;63.90
27795;DHT22;15176;50.844;4.412;2023-06-26T11:06:35;27.20;62.50
27795;DHT22;15176;50.844;4.412;2023-06-26T11:14:23;27.00;64.20
27795;DHT22;15176;50.844;4.412;2023-06-26T11:16:50;27.00;64.80
27795;DHT22;15176;50.844;4.412;2023-06-26T11:19:19;26.70;66.40
27795;DHT22;15176;50.844;4.412;2023-06-26T11:21:46;26.40;66.60
27795;DHT22;15176;50.844;4.412;2023-06-26T11:24:12;25.90;69.10
27795;DHT22;15176;50.844;4.412;2023-06-26T11:29:05;25.70;70.50
27795;DHT22;15176;50.844;4.412;2023-06-26T11:34:00;25.50;70.20
27795;DHT22;15176;50.844;4.412;2023-06-26T11:36:27;25.30;70.20
27795;DHT22;15176;50.844;4.412;2023-06-26T11:39:03;25.10;71.90
27795;DHT22;15176;50.844;4.412;2023-06-26T11:41:30;25.10;71.40
27795;DHT22;15176;50.844;4.412;2023-06-26T11:44:01;25.10;72.00
27795;DHT22;15176;50.844;4.412;2023-06-26T11:46:30;25.40;72.00
27795;DHT22;15176;50.844;4.412;2023-06-26T11:48:56;25.90;71.60
27795;DHT22;15176;50.844;4.412;2023-06-26T11:51:22;26.20;68.80
27795;DHT22;15176;50.844;4.412;2023-06-26T11:53:48;26.50;63.90
27795;DHT22;15176;50.844;4.412;2023-06-26T11:56:16;26.70;64.00
27795;DHT22;15176;50.844;4.412;2023-06-26T11:59:04;27.00;63.30
27795;DHT22;15176;50.844;4.412;2023-06-26T12:01:38;26.70;64.30
27795;DHT22;15176;50.844;4.412;2023-06-26T12:04:08;26.30;62.00
27795;DHT22;15176;50.844;4.412;2023-06-26T12:06:37;26.70;62.50
27795;DHT22;15176;50.844;4.412;2023-06-26T12:09:06;27.10;62.50
27795;DHT22;15176;50.844;4.412;2023-06-26T12:11:33;27.70;60.40
27795;DHT22;15176;50.844;4.412;2023-06-26T12:14:00;27.70;58.70
27795;DHT22;15176;50.844;4.412;2023-06-26T12:16:28;27.00;60.10
27795;DHT22;15176;50.844;4.412;2023-06-26T12:19:04;27.10;59.00
27795;DHT22;15176;50.844;4.412;2023-06-26T12:24:02;27.00;57.10
27795;DHT22;15176;50.844;4.412;2023-06-26T12:26:29;27.10;57.00
27795;DHT22;15176;50.844;4.412;2023-06-26T12:29:08;27.30;58.00
27795;DHT22;15176;50.844;4.412;2023-06-26T12:31:35;27.30;58.30
27795;DHT22;15176;50.844;4.412;2023-06-26T12:34:12;27.70;57.40
27795;DHT22;15176;50.844;4.412;2023-06-26T12:36:42;27.40;56.00
27795;DHT22;15176;50.844;4.412;2023-06-26T12:39:10;27.10;55.30
27795;DHT22;15176;50.844;4.412;2023-06-26T12:41:45;27.10;55.30
27795;DHT22;15176;50.844;4.412;2023-06-26T12:44:29;27.00;56.40
27795;DHT22;15176;50.844;4.412;2023-06-26T12:46:57;27.30;57.50
27795;DHT22;15176;50.844;4.412;2023-06-26T12:49:37;27.10;57.10
27795;DHT22;15176;50.844;4.412;2023-06-26T12:52:07;27.20;57.70
27795;DHT22;15176;50.844;4.412;2023-06-26T12:54:34;27.00;58.00
27795;DHT22;15176;50.844;4.412;2023-06-26T12:57:00;27.00;59.00
27795;DHT22;15176;50.844;4.412;2023-06-26T12:59:26;26.80;58.50
27795;DHT22;15176;50.844;4.412;2023-06-26T13:01:52;26.40;58.70
27795;DHT22;15176;50.844;4.412;2023-06-26T13:04:20;26.40;60.00
27795;DHT22;15176;50.844;4.412;2023-06-26T13:06:46;26.30;59.30
27795;DHT22;15176;50.844;4.412;2023-06-26T13:09:12;26.00;59.70
27795;DHT22;15176;50.844;4.412;2023-06-26T13:11:38;26.30;59.30
27795;DHT22;15176;50.844;4.412;2023-06-26T13:14:04;26.40;59.60
27795;DHT22;15176;50.844;4.412;2023-06-26T13:16:29;26.00;59.30
27795;DHT22;15176;50.844;4.412;2023-06-26T13:18:57;25.90;60.60
27795;DHT22;15176;50.844;4.412;2023-06-26T13:21:23;25.90;60.20
27795;DHT22;15176;50.844;4.412;2023-06-26T13:23:49;26.10;61.10
27795;DHT22;15176;50.844;4.412;2023-06-26T13:26:14;26.00;61.70
27795;DHT22;15176;50.844;4.412;2023-06-26T13:28:40;26.40;61.90
27795;DHT22;15176;50.844;4.412;2023-06-26T13:31:06;26.30;61.30
27795;DHT22;15176;50.844;4.412;2023-06-26T13:33:32;26.40;62.80
27795;DHT22;15176;50.844;4.412;2023-06-26T13:35:57;26.50;60.70
27795;DHT22;15176;50.844;4.412;2023-06-26T13:38:24;26.50;60.30
27795;DHT22;15176;50.844;4.412;2023-06-26T13:40:55;26.50;59.50
27795;DHT22;15176;50.844;4.412;2023-06-26T13:43:26;26.60;60.60
27795;DHT22;15176;50.844;4.412;2023-06-26T13:45:52;26.60;59.20
27795;DHT22;15176;50.844;4.412;2023-06-26T13:48:18;26.60;59.30
27795;DHT22;15176;50.844;4.412;2023-06-26T13:50:45;27.00;60.00
27795;DHT22;15176;50.844;4.412;2023-06-26T13:53:13;27.50;59.70
27795;DHT22;15176;50.844;4.412;2023-06-26T13:55:41;27.40;59.50
27795;DHT22;15176;50.844;4.412;2023-06-26T13:58:07;27.20;58.90
27795;DHT22;15176;50.844;4.412;2023-06-26T14:00:34;27.70;59.20
27795;DHT22;15176;50.844;4.412;2023-06-26T14:03:04;28.10;58.30
27795;DHT22;15176;50.844;4.412;2023-06-26T14:05:35;27.90;57.10
27795;DHT22;15176;50.844;4.412;2023-06-26T14:08:05;27.60;56.50
27795;DHT22;15176;50.844;4.412;2023-06-26T14:10:31;27.00;56.50
27795;DHT22;15176;50.844;4.412;2023-06-26T14:12:59;26.70;57.30
27795;DHT22;15176;50.844;4.412;2023-06-26T14:15:24;26.70;57.20
27795;DHT22;15176;50.844;4.412;2023-06-26T14:17:50;26.80;57.40
27795;DHT22;15176;50.844;4.412;2023-06-26T14:20:17;26.80;54.60
27795;DHT22;15176;50.844;4.412;2023-06-26T14:22:43;26.90;55.20
27795;DHT22;15176;50.844;4.412;2023-06-26T14:25:13;27.20;55.10
27795;DHT22;15176;50.844;4.412;2023-06-26T14:27:40;27.00;55.20
27795;DHT22;15176;50.844;4.412;2023-06-26T14:30:06;26.70;53.20
27795;DHT22;15176;50.844;4.412;2023-06-26T14:32:33;26.70;54.70
27795;DHT22;15176;50.844;4.412;2023-06-26T14:34:59;26.80;56.70
27795;DHT22;15176;50.844;4.412;2023-06-26T14:37:26;27.00;57.80
27795;DHT22;15176;50.844;4.412;2023-06-26T14:39:52;27.00;56.80
27795;DHT22;15176;50.844;4.412;2023-06-26T14:42:18;27.10;56.50
27795;DHT22;15176;50.844;4.412;2023-06-26T14:44:44;27.00;57.60
27795;DHT22;15176;50.844;4.412;2023-06-26T14:47:12;26.90;58.10
27795;DHT22;15176;50.844;4.412;2023-06-26T14:49:39;26.90;58.40
27795;DHT22;15176;50.844;4.412;2023-06-26T14:52:05;27.00;57.10
27795;DHT22;15176;50.844;4.412;2023-06-26T14:54:31;27.00;56.20
27795;DHT22;15176;50.844;4.412;2023-06-26T14:56:58;26.90;56.20
27795;DHT22;15176;50.844;4.412;2023-06-26T14:59:24;26.80;56.80
27795;DHT22;15176;50.844;4.412;2023-06-26T15:01:49;26.50;58.00
27795;DHT22;15176;50.844;4.412;2023-06-26T15:04:15;26.40;58.40
27795;DHT22;15176;50.844;4.412;2023-06-26T15:06:41;26.40;58.30
27795;DHT22;15176;50.844;4.412;2023-06-26T15:09:06;26.10;59.10
27795;DHT22;15176;50.844;4.412;2023-06-26T15:11:34;26.30;58.90
27795;DHT22;15176;50.844;4.412;2023-06-26T15:14:01;26.20;59.00
27795;DHT22;15176;50.844;4.412;2023-06-26T15:16:26;25.80;59.80
27795;DHT22;15176;50.844;4.412;2023-06-26T15:18:52;26.10;59.70
27795;DHT22;15176;50.844;4.412;2023-06-26T15:21:18;26.60;58.90
27795;DHT22;15176;50.844;4.412;2023-06-26T15:23:45;26.20;59.70
27795;DHT22;15176;50.844;4.412;2023-06-26T15:26:11;26.20;59.90
27795;DHT22;15176;50.844;4.412;2023-06-26T15:28:36;26.40;59.50
27795;DHT22;15176;50.844;4.412;2023-06-26T15:31:02;26.20;61.20
27795;DHT22;15176;50.844;4.412;2023-06-26T15:33:28;26.00;60.80
27795;DHT22;15176;50.844;4.412;2023-06-26T15:35:53;25.90;61.70
27795;DHT22;15176;50.844;4.412;2023-06-26T15:38:19;25.90;62.20
27795;DHT22;15176;50.844;4.412;2023-06-26T15:40:45;25.90;61.60
27795;DHT22;15176;50.844;4.412;2023-06-26T15:43:11;25.50;63.20
27795;DHT22;15176;50.844;4.412;2023-06-26T15:45:36;25.10;63.50
27795;DHT22;15176;50.844;4.412;2023-06-26T15:48:02;25.00;64.10
27795;DHT22;15176;50.844;4.412;2023-06-26T15:50:28;25.40;63.20
27795;DHT22;15176;50.844;4.412;2023-06-26T15:52:54;25.40;63.50
27795;DHT22;15176;50.844;4.412;2023-06-26T15:55:19;25.60;62.00